createdAt,value
2022-08-30T00:00:45.485Z,7.90
2022-08-30T00:02:47.495Z,6.53
2022-08-30T00:04:51.668Z,6.45
2022-08-30T00:06:53.780Z,6.82
2022-08-30T00:09:00.031Z,8.50
2022-08-30T00:11:05.560Z,7.55
2022-08-30T00:13:09.017Z,6.15
2022-08-30T00:15:13.887Z,6.35
2022-08-30T00:17:16.433Z,7.40
2022-08-30T00:19:23.732Z,6.85
2022-08-30T00:21:28.326Z,6.68
2022-08-30T00:23:30.344Z,7.55
2022-08-30T00:25:32.764Z,7.25
2022-08-30T00:27:35.418Z,6.50
2022-08-30T00:29:37.375Z,5.72
2022-08-30T00:31:39.562Z,7.53
2022-08-30T00:33:41.505Z,6.53
2022-08-30T00:35:44.390Z,7.10
2022-08-30T00:37:47.716Z,7.18
2022-08-30T00:39:50.259Z,7.47
2022-08-30T00:41:52.362Z,6.88
2022-08-30T00:43:57.441Z,6.30
2022-08-30T00:45:59.537Z,8.07
2022-08-30T00:48:02.212Z,6.97
2022-08-30T00:50:05.845Z,6.90
2022-08-30T00:52:09.075Z,6.82
2022-08-30T00:54:12.511Z,9.55
2022-08-30T00:56:15.916Z,7.70
2022-08-30T00:58:22.059Z,6.97
2022-08-30T01:00:24.854Z,7.72
2022-08-30T01:02:30.987Z,6.97
2022-08-30T01:04:34.429Z,7.05
2022-08-30T01:06:40.186Z,6.25
2022-08-30T01:08:44.065Z,7.07
2022-08-30T01:10:46.490Z,7.55
2022-08-30T01:12:48.670Z,8.68
2022-08-30T01:14:53.290Z,8.75
2022-08-30T01:16:58.011Z,6.80
2022-08-30T01:19:01.411Z,6.72
2022-08-30T01:21:20.578Z,6.90
2022-08-30T01:23:25.608Z,6.30
2022-08-30T01:25:31.217Z,7.88
2022-08-30T01:27:36.732Z,9.52
2022-08-30T01:29:38.911Z,9.02
2022-08-30T01:31:41.160Z,8.60
2022-08-30T01:33:43.876Z,6.82
2022-08-30T01:35:57.855Z,6.78
2022-08-30T01:37:59.985Z,6.78
2022-08-30T01:40:02.409Z,6.50
2022-08-30T01:42:06.628Z,6.45
2022-08-30T01:44:12.451Z,11.50
2022-08-30T01:46:16.900Z,7.30
2022-08-30T01:48:19.607Z,8.05
2022-08-30T01:50:21.955Z,7.95
2022-08-30T01:52:25.727Z,6.28
2022-08-30T01:54:28.188Z,6.55
2022-08-30T01:56:38.919Z,8.35
2022-08-30T01:58:41.686Z,9.05
2022-08-30T02:00:43.714Z,7.82
2022-08-30T02:02:45.988Z,8.32
2022-08-30T02:04:48.173Z,6.00
2022-08-30T02:06:50.318Z,5.82
2022-08-30T02:08:52.749Z,6.95
2022-08-30T02:10:55.226Z,6.32
2022-08-30T02:12:57.903Z,6.18
2022-08-30T02:15:01.016Z,7.15
2022-08-30T02:17:08.794Z,7.55
2022-08-30T02:19:12.805Z,6.07
2022-08-30T02:21:19.277Z,7.05
2022-08-30T02:23:21.873Z,7.45
2022-08-30T02:25:24.245Z,8.93
2022-08-30T02:27:27.471Z,8.70
2022-08-30T02:29:30.566Z,7.88
2022-08-30T02:31:33.139Z,7.20
2022-08-30T02:33:35.745Z,6.22
2022-08-30T02:35:40.819Z,6.45
2022-08-30T02:37:43.320Z,7.00
2022-08-30T02:39:45.552Z,9.48
2022-08-30T02:41:48.273Z,9.02
2022-08-30T02:43:58.550Z,11.07
2022-08-30T02:46:03.122Z,6.97
2022-08-30T02:48:05.491Z,7.47
2022-08-30T02:50:10.209Z,6.30
2022-08-30T02:52:12.322Z,10.70
2022-08-30T02:54:20.244Z,7.82
2022-08-30T02:56:22.481Z,6.20
2022-08-30T02:58:25.056Z,8.20
2022-08-30T03:00:27.542Z,7.65
2022-08-30T03:02:30.561Z,6.97
2022-08-30T03:04:32.850Z,6.57
2022-08-30T03:06:35.240Z,9.57
2022-08-30T03:08:37.837Z,7.57
2022-08-30T03:10:40.344Z,5.80
2022-08-30T03:12:43.061Z,7.90
2022-08-30T03:14:45.368Z,7.22
2022-08-30T03:16:48.036Z,9.88
2022-08-30T03:18:50.576Z,7.82
2022-08-30T03:20:54.425Z,5.93
2022-08-30T03:22:57.595Z,6.13
2022-08-30T03:25:01.548Z,6.10
2022-08-30T03:27:04.016Z,6.10
2022-08-30T03:29:06.273Z,7.38
2022-08-30T03:31:09.792Z,7.75
2022-08-30T03:33:12.196Z,7.40
2022-08-30T03:35:15.348Z,8.10
2022-08-30T03:37:18.003Z,10.48
2022-08-30T03:39:25.314Z,8.35
2022-08-30T03:41:27.906Z,6.55
2022-08-30T03:43:30.276Z,8.23
2022-08-30T03:45:32.725Z,7.82
2022-08-30T03:47:35.225Z,7.00
2022-08-30T03:49:37.844Z,8.55
2022-08-30T03:51:39.890Z,6.72
2022-08-30T03:53:42.079Z,8.82
2022-08-30T03:55:44.275Z,8.00
2022-08-30T03:57:46.917Z,7.88
2022-08-30T03:59:49.055Z,8.35
2022-08-30T04:01:51.398Z,7.47
2022-08-30T04:03:53.835Z,9.40
2022-08-30T04:05:57.071Z,8.18
2022-08-30T04:07:59.250Z,6.38
2022-08-30T04:10:01.851Z,9.93
2022-08-30T04:12:04.482Z,10.82
2022-08-30T04:14:06.744Z,8.00
2022-08-30T04:16:09.373Z,9.57
2022-08-30T04:18:11.815Z,9.48
2022-08-30T04:20:14.044Z,9.80
2022-08-30T04:22:16.216Z,7.93
2022-08-30T04:24:18.768Z,8.73
2022-08-30T04:26:21.141Z,9.18
2022-08-30T04:28:24.010Z,11.32
2022-08-30T04:30:26.135Z,8.93
2022-08-30T04:32:28.480Z,14.07
2022-08-30T04:34:30.606Z,8.52
2022-08-30T04:36:32.805Z,8.63
2022-08-30T04:38:36.448Z,10.18
2022-08-30T04:40:39.187Z,8.55
2022-08-30T04:42:44.223Z,10.23
2022-08-30T04:44:46.457Z,10.82
2022-08-30T04:46:48.961Z,10.15
2022-08-30T04:48:53.124Z,9.70
2022-08-30T04:50:55.274Z,9.57
2022-08-30T04:52:57.562Z,11.00
2022-08-30T04:55:00.149Z,13.73
2022-08-30T04:57:02.225Z,9.18
2022-08-30T04:59:04.418Z,8.85
2022-08-30T05:01:18.900Z,9.25
2022-08-30T05:03:22.109Z,12.07
2022-08-30T05:05:40.060Z,9.30
2022-08-30T05:07:42.158Z,13.10
2022-08-30T05:09:44.284Z,11.13
2022-08-30T05:11:47.322Z,10.32
2022-08-30T05:13:50.143Z,11.40
2022-08-30T05:15:52.970Z,9.10
2022-08-30T05:17:56.645Z,10.48
2022-08-30T05:20:02.393Z,11.07
2022-08-30T05:22:04.945Z,8.82
2022-08-30T05:24:07.374Z,9.77
2022-08-30T05:26:18.721Z,8.65
2022-08-30T05:28:25.574Z,9.70
2022-08-30T05:30:32.665Z,8.77
2022-08-30T05:32:34.932Z,9.35
2022-08-30T05:34:37.194Z,10.18
2022-08-30T05:36:40.529Z,10.25
2022-08-30T05:38:43.575Z,12.45
2022-08-30T05:40:46.321Z,11.50
2022-08-30T05:42:48.630Z,10.82
2022-08-30T05:44:54.639Z,10.43
2022-08-30T05:46:56.879Z,11.00
2022-08-30T05:49:02.173Z,11.90
2022-08-30T05:51:11.635Z,13.05
2022-08-30T05:53:13.829Z,10.63
2022-08-30T05:55:16.108Z,10.38
2022-08-30T05:57:18.864Z,10.82
2022-08-30T05:59:21.821Z,14.20
2022-08-30T06:01:34.411Z,10.93
2022-08-30T06:03:36.911Z,9.15
2022-08-30T06:07:47.492Z,13.07
2022-08-30T06:09:49.766Z,12.60
2022-08-30T06:11:52.089Z,12.90
2022-08-30T06:13:57.259Z,9.73
2022-08-30T06:15:59.863Z,10.02
2022-08-30T06:18:02.348Z,13.95
2022-08-30T06:20:07.842Z,11.85
2022-08-30T06:22:10.240Z,11.82
2022-08-30T06:24:13.525Z,24.60
2022-08-30T06:26:16.557Z,9.10
2022-08-30T06:28:19.183Z,11.55
2022-08-30T06:30:21.514Z,28.73
2022-08-30T06:32:23.827Z,18.13
2022-08-30T06:34:26.757Z,18.13
2022-08-30T06:36:29.588Z,23.88
2022-08-30T06:38:32.067Z,13.05
2022-08-30T06:40:34.432Z,11.68
2022-08-30T06:42:36.819Z,11.18
2022-08-30T06:44:39.741Z,10.77
2022-08-30T06:46:48.272Z,13.80
2022-08-30T06:48:50.986Z,10.02
2022-08-30T06:50:56.234Z,9.18
2022-08-30T06:53:06.068Z,10.90
2022-08-30T06:55:13.456Z,11.88
2022-08-30T06:57:16.268Z,10.43
2022-08-30T06:59:18.676Z,8.07
2022-08-30T07:01:26.563Z,8.68
2022-08-30T07:03:29.456Z,8.18
2022-08-30T07:05:34.374Z,9.15
2022-08-30T07:07:39.004Z,9.98
2022-08-30T07:09:43.728Z,8.32
2022-08-30T07:11:46.029Z,11.43
2022-08-30T07:13:48.201Z,10.13
2022-08-30T07:15:52.848Z,9.68
2022-08-30T07:18:13.336Z,8.88
2022-08-30T07:20:16.552Z,12.35
2022-08-30T07:22:19.438Z,9.23
2022-08-30T07:24:21.649Z,10.80
2022-08-30T07:26:29.529Z,9.60
2022-08-30T07:28:33.028Z,9.68
2022-08-30T07:30:35.861Z,9.25
2022-08-30T07:32:38.756Z,9.93
2022-08-30T07:34:40.864Z,9.50
2022-08-30T07:36:43.055Z,8.73
2022-08-30T07:38:46.975Z,11.00
2022-08-30T07:40:49.419Z,9.25
2022-08-30T07:42:51.975Z,10.60
2022-08-30T07:44:56.817Z,9.00
2022-08-30T07:46:59.761Z,10.00
2022-08-30T07:49:04.070Z,8.60
2022-08-30T07:51:11.395Z,10.00
2022-08-30T07:53:14.515Z,10.07
2022-08-30T07:55:16.717Z,9.13
2022-08-30T07:57:19.652Z,9.38
2022-08-30T07:59:23.509Z,9.00
2022-08-30T08:01:25.924Z,9.15
2022-08-30T08:03:28.993Z,9.05
2022-08-30T08:05:31.328Z,7.63
2022-08-30T08:07:33.618Z,9.48
2022-08-30T08:09:40.728Z,7.85
2022-08-30T08:11:42.859Z,7.93
2022-08-30T08:13:52.864Z,7.35
2022-08-30T08:15:55.979Z,7.95
2022-08-30T08:18:00.595Z,7.88
2022-08-30T08:20:04.266Z,7.90
2022-08-30T08:22:20.648Z,8.18
2022-08-30T08:24:24.224Z,7.13
2022-08-30T08:26:27.191Z,7.78
2022-08-30T08:28:29.998Z,8.18
2022-08-30T08:30:34.724Z,9.35
2022-08-30T08:32:36.753Z,7.85
2022-08-30T08:34:38.907Z,9.07
2022-08-30T08:36:41.822Z,9.43
2022-08-30T08:38:44.901Z,8.18
2022-08-30T08:41:02.118Z,8.20
2022-08-30T08:43:26.406Z,8.20
2022-08-30T08:45:47.690Z,8.32
2022-08-30T08:48:04.370Z,7.38
2022-08-30T08:50:13.237Z,7.57
2022-08-30T08:52:49.796Z,9.00
2022-08-30T08:54:59.095Z,7.05
2022-08-30T08:57:01.961Z,7.22
2022-08-30T08:59:07.562Z,7.88
2022-08-30T09:01:12.507Z,7.15
2022-08-30T09:03:16.742Z,7.22
2022-08-30T09:05:22.639Z,7.68
2022-08-30T09:07:30.181Z,7.18
2022-08-30T09:09:38.584Z,7.68
2022-08-30T09:11:44.444Z,6.95
2022-08-30T09:13:46.898Z,6.70
2022-08-30T09:15:54.640Z,6.47
2022-08-30T09:18:04.287Z,8.38
2022-08-30T09:20:09.427Z,7.00
2022-08-30T09:22:40.396Z,6.97
2022-08-30T09:24:45.940Z,11.95
2022-08-30T09:26:48.157Z,6.80
2022-08-30T09:28:51.898Z,7.15
2022-08-30T09:31:24.592Z,7.85
2022-08-30T09:33:26.802Z,7.72
2022-08-30T09:35:36.605Z,7.43
2022-08-30T09:37:45.079Z,7.40
2022-08-30T09:39:48.234Z,7.93
2022-08-30T09:41:51.041Z,7.05
2022-08-30T09:44:14.507Z,7.47
2022-08-30T09:46:24.994Z,7.03
2022-08-30T09:48:27.260Z,7.70
2022-08-30T09:50:35.084Z,7.22
2022-08-30T09:53:16.197Z,7.00
2022-08-30T09:55:56.929Z,6.97
2022-08-30T09:58:37.537Z,7.63
2022-08-30T10:00:51.885Z,9.35
2022-08-30T10:06:09.199Z,7.95
2022-08-30T10:08:17.704Z,9.95
2022-08-30T10:10:36.236Z,7.68
2022-08-30T10:13:04.878Z,8.55
2022-08-30T10:15:19.118Z,7.57
2022-08-30T10:17:55.746Z,7.22
2022-08-30T10:20:18.028Z,7.60
2022-08-30T10:22:31.581Z,7.57
2022-08-30T10:24:43.980Z,8.77
2022-08-30T10:27:07.246Z,6.78
2022-08-30T10:29:22.573Z,6.88
2022-08-30T10:31:39.983Z,6.88
2022-08-30T10:33:51.598Z,7.10
2022-08-30T10:35:58.161Z,5.72
2022-08-30T10:38:08.463Z,6.28
2022-08-30T10:40:53.785Z,6.40
2022-08-30T10:43:03.157Z,6.78
2022-08-30T10:45:12.136Z,7.15
2022-08-30T10:47:49.436Z,9.70
2022-08-30T10:50:05.515Z,7.78
2022-08-30T10:53:02.298Z,9.68
2022-08-30T10:55:10.369Z,6.50
2022-08-30T10:57:13.032Z,8.10
2022-08-30T10:59:17.824Z,5.25
2022-08-30T11:01:48.485Z,5.05
2022-08-30T11:04:15.217Z,5.97
2022-08-30T11:06:23.397Z,6.25
2022-08-30T11:08:54.387Z,6.28
2022-08-30T11:13:33.165Z,6.30
2022-08-30T11:15:52.163Z,8.40
2022-08-30T11:18:10.764Z,6.68
2022-08-30T11:20:40.085Z,6.35
2022-08-30T11:23:02.338Z,5.88
2022-08-30T11:25:11.447Z,7.13
2022-08-30T11:27:45.221Z,7.47
2022-08-30T11:29:49.670Z,6.32
2022-08-30T11:31:53.129Z,7.05
2022-08-30T11:34:00.931Z,8.40
2022-08-30T11:36:03.333Z,5.90
2022-08-30T11:38:24.517Z,6.05
2022-08-30T11:40:26.602Z,6.43
2022-08-30T11:43:21.510Z,7.53
2022-08-30T11:45:28.226Z,5.43
2022-08-30T11:47:48.599Z,7.10
2022-08-30T11:50:01.664Z,6.47
2022-08-30T11:52:28.644Z,6.22
2022-08-30T11:54:37.971Z,5.80
2022-08-30T11:56:48.658Z,6.80
2022-08-30T11:59:25.205Z,5.65
2022-08-30T12:01:54.969Z,5.47
2022-08-30T12:04:02.233Z,5.45
2022-08-30T12:06:07.475Z,5.40
2022-08-30T12:08:34.453Z,6.47
2022-08-30T12:10:40.438Z,8.93
2022-08-30T12:12:48.510Z,6.72
2022-08-30T12:14:56.106Z,9.50
2022-08-30T12:17:18.447Z,7.80
2022-08-30T12:19:26.209Z,5.00
2022-08-30T12:21:45.154Z,6.00
2022-08-30T12:24:18.950Z,7.07
2022-08-30T12:26:30.967Z,6.97
2022-08-30T12:28:33.646Z,8.23
2022-08-30T12:30:39.914Z,5.88
2022-08-30T12:32:50.800Z,6.75
2022-08-30T12:34:56.729Z,5.15
2022-08-30T12:37:09.035Z,5.93
2022-08-30T12:39:22.095Z,6.13
2022-08-30T12:41:25.465Z,5.30
2022-08-30T12:43:40.163Z,5.30
2022-08-30T12:45:50.802Z,5.10
2022-08-30T12:48:06.926Z,5.40
2022-08-30T12:50:12.313Z,5.28
2022-08-30T12:52:26.510Z,4.97
2022-08-30T12:54:31.516Z,6.65
2022-08-30T13:00:12.590Z,5.72
2022-08-30T13:02:28.017Z,5.82
2022-08-30T13:04:30.396Z,4.63
2022-08-30T13:06:38.358Z,4.90
2022-08-30T13:08:45.892Z,5.80
2022-08-30T13:11:07.330Z,4.40
2022-08-30T13:13:10.563Z,5.30
2022-08-30T13:15:28.050Z,4.88
2022-08-30T13:17:30.541Z,4.90
2022-08-30T13:19:41.316Z,6.63
2022-08-30T13:21:55.774Z,4.97
2022-08-30T13:24:03.386Z,4.80
2022-08-30T13:26:08.326Z,5.95
2022-08-30T13:28:10.673Z,5.78
2022-08-30T13:30:18.534Z,4.47
2022-08-30T13:32:22.301Z,5.03
2022-08-30T13:34:24.784Z,4.38
2022-08-30T13:36:32.718Z,5.10
2022-08-30T13:38:35.011Z,5.60
2022-08-30T13:40:38.435Z,5.65
2022-08-30T13:42:43.281Z,7.32
2022-08-30T13:44:45.298Z,6.53
2022-08-30T13:47:32.313Z,4.97
2022-08-30T13:51:58.114Z,5.70
2022-08-30T13:54:06.056Z,7.32
2022-08-30T13:56:09.805Z,8.10
2022-08-30T13:58:16.991Z,6.95
2022-08-30T14:00:22.115Z,6.20
2022-08-30T14:02:26.698Z,6.63
2022-08-30T14:04:29.791Z,5.57
2022-08-30T14:06:34.428Z,4.38
2022-08-30T14:08:48.695Z,4.65
2022-08-30T14:10:54.690Z,4.22
2022-08-30T14:13:04.862Z,4.72
2022-08-30T14:15:14.027Z,4.60
2022-08-30T14:17:16.544Z,4.60
2022-08-30T14:19:19.105Z,4.75
2022-08-30T14:21:24.444Z,3.95
2022-08-30T14:23:28.364Z,3.22
2022-08-30T14:25:30.796Z,5.70
2022-08-30T14:27:33.332Z,4.78
2022-08-30T14:29:36.352Z,3.88
2022-08-30T14:31:40.369Z,4.40
2022-08-30T14:33:44.356Z,5.60
2022-08-30T14:35:46.508Z,3.50
2022-08-30T14:37:49.994Z,3.42
2022-08-30T14:39:52.059Z,3.38
2022-08-30T14:41:55.670Z,3.95
2022-08-30T14:43:57.961Z,5.40
2022-08-30T14:46:01.615Z,3.35
2022-08-30T14:48:11.439Z,3.55
2022-08-30T14:50:15.405Z,3.88
2022-08-30T14:52:17.512Z,3.20
2022-08-30T14:54:23.319Z,3.10
2022-08-30T14:56:28.166Z,3.53
2022-08-30T14:58:31.197Z,2.90
2022-08-30T15:00:34.088Z,4.22
2022-08-30T15:02:38.317Z,5.10
2022-08-30T15:04:40.878Z,3.92
2022-08-30T15:06:46.440Z,4.38
2022-08-30T15:08:49.738Z,3.42
2022-08-30T15:10:52.081Z,4.38
2022-08-30T15:12:57.800Z,3.05
2022-08-30T15:15:00.207Z,4.22
2022-08-30T15:17:06.520Z,4.47
2022-08-30T15:19:13.817Z,3.10
2022-08-30T15:21:26.675Z,3.22
2022-08-30T15:23:29.003Z,3.05
2022-08-30T15:25:32.027Z,3.08
2022-08-30T15:27:34.398Z,4.00
2022-08-30T15:29:37.076Z,3.42
2022-08-30T15:31:40.947Z,2.90
2022-08-30T15:33:44.379Z,3.17
2022-08-30T15:35:50.850Z,3.45
2022-08-30T15:37:53.523Z,3.00
2022-08-30T15:39:56.273Z,2.67
2022-08-30T15:42:01.312Z,3.50
2022-08-30T15:44:05.324Z,2.88
2022-08-30T15:46:28.283Z,3.80
2022-08-30T15:48:32.341Z,2.75
2022-08-30T15:50:36.044Z,2.80
2022-08-30T15:52:40.844Z,6.38
2022-08-30T15:54:46.681Z,3.78
2022-08-30T15:56:59.425Z,3.92
2022-08-30T15:59:28.468Z,4.18
2022-08-30T16:01:31.132Z,2.90
2022-08-30T16:03:35.833Z,3.88
2022-08-30T16:05:40.561Z,5.05
2022-08-30T16:07:46.148Z,3.83
2022-08-30T16:09:48.519Z,3.03
2022-08-30T16:11:50.932Z,3.42
2022-08-30T16:13:55.169Z,2.50
2022-08-30T16:16:01.493Z,2.00
2022-08-30T16:18:04.373Z,1.83
2022-08-30T16:20:09.788Z,3.33
2022-08-30T16:22:15.850Z,4.95
2022-08-30T16:24:26.098Z,3.15
2022-08-30T16:26:30.247Z,4.88
2022-08-30T16:28:32.991Z,2.10
2022-08-30T16:30:35.114Z,2.92
2022-08-30T16:32:40.711Z,2.08
2022-08-30T16:34:43.386Z,3.72
2022-08-30T16:36:51.216Z,7.53
2022-08-30T16:38:57.875Z,4.13
2022-08-30T16:41:08.217Z,5.25
2022-08-30T16:43:10.979Z,5.55
2022-08-30T16:45:14.086Z,9.27
2022-08-30T16:47:16.609Z,7.30
2022-08-30T16:49:22.496Z,6.68
2022-08-30T16:51:27.526Z,6.45
2022-08-30T16:53:29.930Z,9.02
2022-08-30T16:55:36.176Z,6.20
2022-08-30T16:57:38.785Z,6.15
2022-08-30T16:59:41.665Z,5.60
2022-08-30T17:01:44.936Z,5.60
2022-08-30T17:03:49.461Z,6.78
2022-08-30T17:05:53.155Z,5.85
2022-08-30T17:07:59.829Z,6.05
2022-08-30T17:10:05.631Z,5.80
2022-08-30T17:12:07.749Z,6.43
2022-08-30T17:14:13.613Z,7.40
2022-08-30T17:16:16.433Z,5.28
2022-08-30T17:18:29.646Z,6.18
2022-08-30T17:20:33.322Z,6.28
2022-08-30T17:22:36.280Z,6.03
2022-08-30T17:24:38.857Z,5.00
2022-08-30T17:26:40.932Z,5.57
2022-08-30T17:28:42.850Z,5.63
2022-08-30T17:30:45.971Z,6.18
2022-08-30T17:32:49.251Z,5.68
2022-08-30T17:34:51.373Z,4.75
2022-08-30T17:36:55.043Z,7.45
2022-08-30T17:38:56.873Z,6.53
2022-08-30T17:41:07.089Z,5.72
2022-08-30T17:43:09.210Z,4.90
2022-08-30T17:45:13.529Z,4.95
2022-08-30T17:47:15.369Z,4.35
2022-08-30T17:49:17.345Z,4.53
2022-08-30T17:51:20.808Z,6.20
2022-08-30T17:53:22.658Z,4.18
2022-08-30T17:55:25.079Z,4.88
2022-08-30T17:57:26.988Z,6.68
2022-08-30T17:59:32.594Z,4.47
2022-08-30T18:01:35.124Z,5.10
2022-08-30T18:03:37.496Z,5.18
2022-08-30T18:05:41.682Z,4.57
2022-08-30T18:07:46.104Z,7.10
2022-08-30T18:09:48.003Z,5.45
2022-08-30T18:11:51.523Z,4.55
2022-08-30T18:13:53.602Z,5.07
2022-08-30T18:15:55.454Z,6.18
2022-08-30T18:17:57.292Z,5.95
2022-08-30T18:19:59.191Z,6.32
2022-08-30T18:22:04.810Z,4.78
2022-08-30T18:24:07.701Z,5.10
2022-08-30T18:26:14.803Z,4.82
2022-08-30T18:28:19.383Z,5.15
2022-08-30T18:30:33.941Z,4.97
2022-08-30T18:32:38.299Z,5.65
2022-08-30T18:34:42.432Z,5.72
2022-08-30T18:36:44.902Z,5.20
2022-08-30T18:38:46.775Z,6.40
2022-08-30T18:40:50.284Z,6.05
2022-08-30T18:42:52.127Z,5.40
2022-08-30T18:44:54.084Z,4.88
2022-08-30T18:46:57.661Z,5.57
2022-08-30T18:49:00.333Z,7.55
2022-08-30T18:51:02.797Z,4.85
2022-08-30T18:53:04.940Z,6.22
2022-08-30T18:55:10.778Z,5.65
2022-08-30T18:57:12.817Z,5.35
2022-08-30T18:59:15.199Z,6.07
2022-08-30T19:01:22.658Z,6.55
2022-08-30T19:03:25.226Z,8.30
2022-08-30T19:05:27.113Z,6.78
2022-08-30T19:07:34.220Z,5.82
2022-08-30T19:09:40.029Z,7.13
2022-08-30T19:11:41.885Z,6.93
2022-08-30T19:13:43.720Z,7.97
2022-08-30T19:15:45.704Z,6.40
2022-08-30T19:17:48.174Z,8.88
2022-08-30T19:22:11.974Z,7.72
2022-08-30T19:24:13.802Z,7.43
2022-08-30T19:26:19.670Z,7.10
2022-08-30T19:28:21.775Z,6.47
2022-08-30T19:30:29.662Z,6.72
2022-08-30T19:32:31.970Z,6.45
2022-08-30T19:34:34.319Z,7.47
2022-08-30T19:36:36.880Z,6.38
2022-08-30T19:38:38.790Z,9.05
2022-08-30T19:40:40.680Z,6.80
2022-08-30T19:42:45.956Z,8.18
2022-08-30T19:44:52.279Z,9.25
2022-08-30T19:46:54.066Z,7.25
2022-08-30T19:48:58.588Z,6.20
2022-08-30T19:51:06.677Z,6.15
2022-08-30T19:53:09.184Z,6.40
2022-08-30T19:55:13.044Z,6.35
2022-08-30T19:57:16.785Z,7.00
2022-08-30T19:59:18.650Z,8.18
2022-08-30T20:01:30.618Z,6.47
2022-08-30T20:03:37.710Z,5.93
2022-08-30T20:05:41.967Z,7.70
2022-08-30T20:07:44.078Z,7.93
2022-08-30T20:09:48.016Z,6.10
2022-08-30T20:11:52.514Z,6.18
2022-08-30T20:13:58.272Z,6.72
2022-08-30T20:16:00.220Z,6.05
2022-08-30T20:18:06.066Z,6.38
2022-08-30T20:20:20.445Z,8.23
2022-08-30T20:22:24.627Z,5.75
2022-08-30T20:24:28.645Z,6.20
2022-08-30T20:24:33.154Z,9.43
2022-08-30T20:26:34.501Z,8.75
2022-08-30T20:28:37.392Z,6.75
2022-08-30T20:30:43.707Z,6.57
2022-08-30T20:32:47.073Z,7.13
2022-08-30T20:34:49.202Z,6.68
2022-08-30T20:36:52.333Z,6.10
2022-08-30T20:38:59.087Z,5.55
2022-08-30T20:41:29.210Z,5.53
2022-08-30T20:43:31.834Z,5.47
2022-08-30T20:45:34.726Z,4.45
2022-08-30T20:47:38.777Z,5.13
2022-08-30T20:49:40.999Z,6.18
2022-08-30T20:51:43.200Z,4.90
2022-08-30T20:53:46.070Z,8.25
2022-08-30T20:55:48.149Z,5.07
2022-08-30T20:57:50.387Z,6.45
2022-08-30T20:59:52.815Z,4.32
2022-08-30T21:01:55.063Z,6.70
2022-08-30T21:03:57.632Z,5.18
2022-08-30T21:05:59.794Z,5.13
2022-08-30T21:08:01.991Z,5.78
2022-08-30T21:10:13.647Z,4.32
2022-08-30T21:12:16.514Z,5.60
2022-08-30T21:14:20.344Z,6.78
2022-08-30T21:16:22.623Z,6.38
2022-08-30T21:18:29.691Z,7.22
2022-08-30T21:20:33.070Z,6.47
2022-08-30T21:22:35.440Z,7.85
2022-08-30T21:24:38.228Z,6.72
2022-08-30T21:26:42.115Z,6.07
2022-08-30T21:28:47.930Z,7.07
2022-08-30T21:30:50.242Z,6.65
2022-08-30T21:32:52.612Z,10.77
2022-08-30T21:35:13.150Z,7.35
2022-08-30T21:37:16.603Z,9.57
2022-08-30T21:39:22.909Z,8.07
2022-08-30T21:41:26.902Z,8.75
2022-08-30T21:43:29.103Z,8.40
2022-08-30T21:45:31.490Z,7.78
2022-08-30T21:47:33.704Z,10.38
2022-08-30T21:49:45.294Z,9.18
2022-08-30T21:51:50.060Z,6.45
2022-08-30T21:53:52.526Z,9.23
2022-08-30T21:55:54.806Z,9.50
2022-08-30T21:57:57.658Z,7.28
2022-08-30T21:59:59.963Z,8.00
2022-08-30T22:02:02.591Z,6.72
2022-08-30T22:04:07.648Z,7.55
2022-08-30T22:06:11.606Z,7.50
2022-08-30T22:08:13.855Z,9.52
2022-08-30T22:10:16.565Z,7.13
2022-08-30T22:12:18.722Z,8.90
2022-08-30T22:14:22.216Z,12.32
2022-08-30T22:16:25.209Z,7.78
2022-08-30T22:18:28.127Z,8.60
2022-08-30T22:20:30.687Z,9.20
2022-08-30T22:22:33.488Z,7.55
2022-08-30T22:24:35.812Z,7.68
2022-08-30T22:26:38.695Z,8.20
2022-08-30T22:28:41.451Z,7.22
2022-08-30T22:30:43.774Z,8.57
2022-08-30T22:32:46.578Z,8.88
2022-08-30T22:34:49.946Z,8.52
2022-08-30T22:36:59.022Z,11.18
2022-08-30T22:39:03.145Z,7.05
2022-08-30T22:41:13.060Z,7.60
2022-08-30T22:43:16.859Z,7.57
2022-08-30T22:45:19.214Z,8.05
2022-08-30T22:47:21.379Z,8.60
2022-08-30T22:49:23.621Z,7.60
2022-08-30T22:51:28.872Z,7.68
2022-08-30T22:53:35.906Z,7.80
2022-08-30T22:55:41.272Z,7.13
2022-08-30T22:57:44.142Z,11.63
2022-08-30T22:59:49.384Z,6.80
2022-08-30T23:01:51.910Z,6.20
2022-08-30T23:03:54.427Z,6.22
2022-08-30T23:05:56.910Z,7.05
2022-08-30T23:07:59.022Z,7.00
2022-08-30T23:10:03.956Z,8.82
2022-08-30T23:12:06.978Z,9.35
2022-08-30T23:14:09.457Z,10.88
2022-08-30T23:16:13.185Z,9.48
2022-08-30T23:18:16.694Z,10.60
2022-08-30T23:20:19.065Z,7.90
2022-08-30T23:22:21.422Z,9.38
2022-08-30T23:24:41.800Z,11.13
2022-08-30T23:27:08.683Z,8.63
2022-08-30T23:29:30.349Z,9.25
2022-08-30T23:31:51.003Z,13.10
2022-08-30T23:34:12.379Z,10.20
2022-08-30T23:36:33.784Z,9.85
2022-08-30T23:38:54.809Z,12.13
2022-08-30T23:41:15.573Z,8.18
2022-08-30T23:43:37.042Z,8.85
2022-08-30T23:45:58.021Z,9.82
2022-08-30T23:48:18.833Z,10.52
2022-08-30T23:50:39.450Z,8.48
2022-08-30T23:53:00.350Z,8.73
2022-08-30T23:55:20.973Z,11.02
2022-08-30T23:57:41.462Z,10.05
